sensor_id;sensor_type;location;lat;lon;timestamp;pressure;altitude;pressure_sealevel;temperature;humidity
11448;BME280;43755;49.736;8.734;2023-04-22T00:01:54;97227.97;;;12.51;84.50
11448;BME280;43755;49.736;8.734;2023-04-22T00:03:56;97227.34;;;12.48;85.31
11448;BME280;43755;49.736;8.734;2023-04-22T00:05:57;97230.47;;;12.40;85.54
11448;BME280;43755;49.736;8.734;2023-04-22T00:07:58;97233.56;;;12.47;85.51
11448;BME280;43755;49.736;8.734;2023-04-22T00:10:01;97219.72;;;12.56;84.39
11448;BME280;43755;49.736;8.734;2023-04-22T00:12:03;97221.91;;;12.63;82.60
11448;BME280;43755;49.736;8.734;2023-04-22T00:14:05;97224.94;;;12.71;82.00
11448;BME280;43755;49.736;8.734;2023-04-22T00:16:06;97218.47;;;12.90;81.11
11448;BME280;43755;49.736;8.734;2023-04-22T00:18:08;97208.25;;;12.96;80.73
11448;BME280;43755;49.736;8.734;2023-04-22T00:20:13;97216.34;;;12.95;82.24
11448;BME280;43755;49.736;8.734;2023-04-22T00:22:15;97220.25;;;12.89;83.13
11448;BME280;43755;49.736;8.734;2023-04-22T00:24:16;97224.94;;;12.57;87.75
11448;BME280;43755;49.736;8.734;2023-04-22T00:26:19;97217.47;;;12.50;89.23
11448;BME280;43755;49.736;8.734;2023-04-22T00:28:20;97210.66;;;12.60;86.54
11448;BME280;43755;49.736;8.734;2023-04-22T00:30:22;97205.34;;;12.60;88.01
11448;BME280;43755;49.736;8.734;2023-04-22T00:32:23;97210.91;;;12.55;90.01
11448;BME280;43755;49.736;8.734;2023-04-22T00:34:25;97204.88;;;12.53;88.75
11448;BME280;43755;49.736;8.734;2023-04-22T00:36:27;97208.09;;;12.44;91.47
11448;BME280;43755;49.736;8.734;2023-04-22T00:38:28;97206.38;;;12.43;93.07
11448;BME280;43755;49.736;8.734;2023-04-22T00:40:30;97207.63;;;12.38;92.40
11448;BME280;43755;49.736;8.734;2023-04-22T00:42:33;97204.09;;;12.37;93.60
11448;BME280;43755;49.736;8.734;2023-04-22T00:44:34;97202.22;;;12.39;91.08
11448;BME280;43755;49.736;8.734;2023-04-22T00:46:36;97196.91;;;12.39;93.59
11448;BME280;43755;49.736;8.734;2023-04-22T00:48:38;97197.84;;;12.38;94.83
11448;BME280;43755;49.736;8.734;2023-04-22T00:50:39;97194.25;;;12.39;91.56
11448;BME280;43755;49.736;8.734;2023-04-22T00:52:41;97204.50;;;12.45;93.16
11448;BME280;43755;49.736;8.734;2023-04-22T00:54:42;97200.97;;;12.45;93.41
11448;BME280;43755;49.736;8.734;2023-04-22T00:56:44;97200.97;;;12.45;92.67
11448;BME280;43755;49.736;8.734;2023-04-22T00:58:47;97206.50;;;12.42;94.19
11448;BME280;43755;49.736;8.734;2023-04-22T01:00:49;97207.06;;;12.32;96.30
11448;BME280;43755;49.736;8.734;2023-04-22T01:02:51;97199.88;;;12.35;94.35
11448;BME280;43755;49.736;8.734;2023-04-22T01:04:53;97202.50;;;12.35;94.76
11448;BME280;43755;49.736;8.734;2023-04-22T01:06:55;97192.00;;;12.33;96.66
11448;BME280;43755;49.736;8.734;2023-04-22T01:08:57;97189.00;;;12.25;98.65
11448;BME280;43755;49.736;8.734;2023-04-22T01:10:58;97184.06;;;12.19;100.00
11448;BME280;43755;49.736;8.734;2023-04-22T01:13:00;97190.78;;;12.10;100.00
11448;BME280;43755;49.736;8.734;2023-04-22T01:15:03;97188.41;;;12.06;100.00
11448;BME280;43755;49.736;8.734;2023-04-22T01:17:05;97186.13;;;12.00;100.00
11448;BME280;43755;49.736;8.734;2023-04-22T01:19:10;97193.16;;;12.01;100.00
11448;BME280;43755;49.736;8.734;2023-04-22T01:21:11;97181.00;;;11.97;100.00
11448;BME280;43755;49.736;8.734;2023-04-22T01:23:16;97185.56;;;11.95;100.00
11448;BME280;43755;49.736;8.734;2023-04-22T01:25:18;97186.69;;;11.90;100.00
11448;BME280;43755;49.736;8.734;2023-04-22T01:27:20;97186.88;;;11.87;100.00
11448;BME280;43755;49.736;8.734;2023-04-22T01:29:21;97188.75;;;11.85;100.00
11448;BME280;43755;49.736;8.734;2023-04-22T01:31:23;97185.53;;;11.80;100.00
11448;BME280;43755;49.736;8.734;2023-04-22T01:33:24;97192.84;;;11.77;100.00
11448;BME280;43755;49.736;8.734;2023-04-22T01:35:26;97185.97;;;11.73;100.00
11448;BME280;43755;49.736;8.734;2023-04-22T01:37:29;97185.22;;;11.71;100.00
11448;BME280;43755;49.736;8.734;2023-04-22T01:39:32;97185.59;;;11.65;100.00
11448;BME280;43755;49.736;8.734;2023-04-22T01:41:33;97194.63;;;11.61;100.00
11448;BME280;43755;49.736;8.734;2023-04-22T01:43:35;97193.41;;;11.52;100.00
11448;BME280;43755;49.736;8.734;2023-04-22T01:45:37;97187.81;;;11.57;100.00
11448;BME280;43755;49.736;8.734;2023-04-22T01:47:38;97195.28;;;11.50;100.00
11448;BME280;43755;49.736;8.734;2023-04-22T01:49:40;97193.34;;;11.38;100.00
11448;BME280;43755;49.736;8.734;2023-04-22T01:51:41;97187.97;;;11.39;100.00
11448;BME280;43755;49.736;8.734;2023-04-22T01:53:42;97193.94;;;11.43;100.00
11448;BME280;43755;49.736;8.734;2023-04-22T01:55:45;97192.06;;;11.45;100.00
11448;BME280;43755;49.736;8.734;2023-04-22T01:57:47;97193.78;;;11.46;100.00
11448;BME280;43755;49.736;8.734;2023-04-22T01:59:48;97194.72;;;11.45;100.00
11448;BME280;43755;49.736;8.734;2023-04-22T02:01:49;97190.03;;;11.34;100.00
11448;BME280;43755;49.736;8.734;2023-04-22T02:03:51;97191.25;;;11.29;100.00
11448;BME280;43755;49.736;8.734;2023-04-22T02:05:52;97188.88;;;11.24;100.00
11448;BME280;43755;49.736;8.734;2023-04-22T02:07:54;97187.09;;;11.25;100.00
11448;BME280;43755;49.736;8.734;2023-04-22T02:09:55;97185.63;;;11.19;100.00
11448;BME280;43755;49.736;8.734;2023-04-22T02:11:58;97190.00;;;11.20;100.00
11448;BME280;43755;49.736;8.734;2023-04-22T02:14:00;97189.41;;;11.15;100.00
11448;BME280;43755;49.736;8.734;2023-04-22T02:16:02;97189.75;;;11.09;100.00
11448;BME280;43755;49.736;8.734;2023-04-22T02:18:05;97195.25;;;11.06;100.00
11448;BME280;43755;49.736;8.734;2023-04-22T02:20:07;97192.75;;;11.03;100.00
11448;BME280;43755;49.736;8.734;2023-04-22T02:22:10;97200.88;;;11.00;100.00
11448;BME280;43755;49.736;8.734;2023-04-22T02:24:11;97194.47;;;11.04;100.00
11448;BME280;43755;49.736;8.734;2023-04-22T02:26:13;97204.47;;;10.99;100.00
11448;BME280;43755;49.736;8.734;2023-04-22T02:28:16;97191.75;;;11.05;100.00
11448;BME280;43755;49.736;8.734;2023-04-22T02:30:17;97203.69;;;11.13;100.00
11448;BME280;43755;49.736;8.734;2023-04-22T02:32:19;97206.78;;;11.35;100.00
11448;BME280;43755;49.736;8.734;2023-04-22T02:34:20;97197.34;;;11.45;100.00
11448;BME280;43755;49.736;8.734;2023-04-22T02:36:21;97197.44;;;11.43;100.00
11448;BME280;43755;49.736;8.734;2023-04-22T02:38:22;97194.72;;;11.45;100.00
11448;BME280;43755;49.736;8.734;2023-04-22T02:40:24;97201.53;;;11.49;100.00
11448;BME280;43755;49.736;8.734;2023-04-22T02:42:25;97198.78;;;11.50;100.00
11448;BME280;43755;49.736;8.734;2023-04-22T02:44:28;97194.63;;;11.46;100.00
11448;BME280;43755;49.736;8.734;2023-04-22T02:46:30;97190.34;;;11.44;100.00
11448;BME280;43755;49.736;8.734;2023-04-22T02:48:31;97195.84;;;11.41;100.00
11448;BME280;43755;49.736;8.734;2023-04-22T02:50:32;97192.63;;;11.36;100.00
11448;BME280;43755;49.736;8.734;2023-04-22T02:52:34;97184.25;;;11.28;100.00
11448;BME280;43755;49.736;8.734;2023-04-22T02:54:35;97183.66;;;11.23;100.00
11448;BME280;43755;49.736;8.734;2023-04-22T02:56:36;97181.38;;;11.17;100.00
11448;BME280;43755;49.736;8.734;2023-04-22T02:58:38;97181.66;;;11.12;100.00
11448;BME280;43755;49.736;8.734;2023-04-22T03:00:41;97180.88;;;11.10;100.00
11448;BME280;43755;49.736;8.734;2023-04-22T03:02:42;97183.09;;;11.02;100.00
11448;BME280;43755;49.736;8.734;2023-04-22T03:04:44;97180.06;;;10.94;100.00
11448;BME280;43755;49.736;8.734;2023-04-22T03:06:45;97185.63;;;10.89;100.00
11448;BME280;43755;49.736;8.734;2023-04-22T03:08:46;97187.66;;;10.84;100.00
11448;BME280;43755;49.736;8.734;2023-04-22T03:10:48;97190.50;;;10.81;100.00
11448;BME280;43755;49.736;8.734;2023-04-22T03:12:49;97189.63;;;10.81;100.00
11448;BME280;43755;49.736;8.734;2023-04-22T03:14:51;97188.34;;;10.72;100.00
11448;BME280;43755;49.736;8.734;2023-04-22T03:16:54;97190.25;;;10.70;100.00
11448;BME280;43755;49.736;8.734;2023-04-22T03:18:55;97196.72;;;10.64;100.00
11448;BME280;43755;49.736;8.734;2023-04-22T03:20:56;97184.84;;;10.56;100.00
11448;BME280;43755;49.736;8.734;2023-04-22T03:22:58;97194.06;;;10.49;100.00
11448;BME280;43755;49.736;8.734;2023-04-22T03:24:59;97199.53;;;10.46;100.00
11448;BME280;43755;49.736;8.734;2023-04-22T03:27:01;97205.94;;;10.42;100.00
11448;BME280;43755;49.736;8.734;2023-04-22T03:29:03;97198.16;;;10.54;100.00
11448;BME280;43755;49.736;8.734;2023-04-22T03:31:04;97202.75;;;10.98;100.00
11448;BME280;43755;49.736;8.734;2023-04-22T03:33:07;97194.03;;;11.12;100.00
11448;BME280;43755;49.736;8.734;2023-04-22T03:35:09;97204.94;;;11.81;91.92
11448;BME280;43755;49.736;8.734;2023-04-22T03:37:10;97202.81;;;12.30;83.97
11448;BME280;43755;49.736;8.734;2023-04-22T03:39:12;97199.56;;;12.53;81.50
11448;BME280;43755;49.736;8.734;2023-04-22T03:41:13;97202.84;;;12.71;78.83
11448;BME280;43755;49.736;8.734;2023-04-22T03:43:15;97203.59;;;12.73;77.87
11448;BME280;43755;49.736;8.734;2023-04-22T03:45:16;97197.34;;;12.74;77.66
11448;BME280;43755;49.736;8.734;2023-04-22T03:47:17;97199.81;;;12.77;77.50
11448;BME280;43755;49.736;8.734;2023-04-22T03:49:20;97199.13;;;12.73;76.42
11448;BME280;43755;49.736;8.734;2023-04-22T03:51:22;97198.19;;;12.75;77.70
11448;BME280;43755;49.736;8.734;2023-04-22T03:53:23;97202.09;;;12.55;85.22
11448;BME280;43755;49.736;8.734;2023-04-22T03:55:24;97198.75;;;12.24;91.58
11448;BME280;43755;49.736;8.734;2023-04-22T03:57:26;97193.16;;;12.01;95.98
11448;BME280;43755;49.736;8.734;2023-04-22T03:59:27;97195.00;;;11.84;99.93
11448;BME280;43755;49.736;8.734;2023-04-22T04:01:29;97189.25;;;11.62;100.00
11448;BME280;43755;49.736;8.734;2023-04-22T04:03:30;97192.06;;;11.45;100.00
11448;BME280;43755;49.736;8.734;2023-04-22T04:05:33;97183.03;;;11.33;100.00
11448;BME280;43755;49.736;8.734;2023-04-22T04:07:34;97183.66;;;11.23;100.00
11448;BME280;43755;49.736;8.734;2023-04-22T04:09:36;97186.16;;;11.10;100.00
11448;BME280;43755;49.736;8.734;2023-04-22T04:11:37;97181.78;;;10.95;100.00
11448;BME280;43755;49.736;8.734;2023-04-22T04:13:39;97184.94;;;10.86;100.00
11448;BME280;43755;49.736;8.734;2023-04-22T04:15:40;97179.31;;;10.76;100.00
11448;BME280;43755;49.736;8.734;2023-04-22T04:17:42;97179.91;;;10.65;100.00
11448;BME280;43755;49.736;8.734;2023-04-22T04:19:43;97177.00;;;10.54;100.00
11448;BME280;43755;49.736;8.734;2023-04-22T04:21:46;97176.94;;;10.40;100.00
11448;BME280;43755;49.736;8.734;2023-04-22T04:23:47;97168.88;;;10.26;100.00
11448;BME280;43755;49.736;8.734;2023-04-22T04:25:49;97173.81;;;10.16;100.00
11448;BME280;43755;49.736;8.734;2023-04-22T04:27:51;97175.06;;;10.09;100.00
11448;BME280;43755;49.736;8.734;2023-04-22T04:29:52;97172.66;;;10.05;100.00
11448;BME280;43755;49.736;8.734;2023-04-22T04:31:55;97170.50;;;9.96;100.00
11448;BME280;43755;49.736;8.734;2023-04-22T04:33:56;97165.41;;;9.93;100.00
11448;BME280;43755;49.736;8.734;2023-04-22T04:35:58;97164.00;;;9.85;100.00
11448;BME280;43755;49.736;8.734;2023-04-22T04:38:00;97164.56;;;9.75;100.00
11448;BME280;43755;49.736;8.734;2023-04-22T04:40:02;97166.75;;;9.67;100.00
11448;BME280;43755;49.736;8.734;2023-04-22T04:42:04;97160.88;;;9.62;100.00
11448;BME280;43755;49.736;8.734;2023-04-22T04:44:06;97157.47;;;9.60;100.00
11448;BME280;43755;49.736;8.734;2023-04-22T04:46:07;97166.16;;;9.62;100.00
11448;BME280;43755;49.736;8.734;2023-04-22T04:48:09;97160.19;;;9.58;100.00
11448;BME280;43755;49.736;8.734;2023-04-22T04:50:11;97161.66;;;9.64;100.00
11448;BME280;43755;49.736;8.734;2023-04-22T04:52:13;97160.53;;;9.68;100.00
11448;BME280;43755;49.736;8.734;2023-04-22T04:54:16;97154.88;;;9.75;100.00
11448;BME280;43755;49.736;8.734;2023-04-22T04:56:17;97163.47;;;9.79;100.00
11448;BME280;43755;49.736;8.734;2023-04-22T04:58:19;97158.50;;;9.73;100.00
11448;BME280;43755;49.736;8.734;2023-04-22T05:00:20;97149.59;;;9.75;100.00
11448;BME280;43755;49.736;8.734;2023-04-22T05:02:21;97151.13;;;9.79;100.00
11448;BME280;43755;49.736;8.734;2023-04-22T05:04:23;97152.84;;;9.80;100.00
11448;BME280;43755;49.736;8.734;2023-04-22T05:06:24;97157.13;;;9.83;100.00
11448;BME280;43755;49.736;8.734;2023-04-22T05:08:27;97157.63;;;9.90;100.00
11448;BME280;43755;49.736;8.734;2023-04-22T05:10:29;97156.13;;;10.01;100.00
11448;BME280;43755;49.736;8.734;2023-04-22T05:12:31;97168.97;;;10.07;100.00
11448;BME280;43755;49.736;8.734;2023-04-22T05:14:33;97159.97;;;10.11;100.00
11448;BME280;43755;49.736;8.734;2023-04-22T05:16:34;97165.81;;;10.18;100.00
11448;BME280;43755;49.736;8.734;2023-04-22T05:18:36;97149.63;;;10.24;100.00
11448;BME280;43755;49.736;8.734;2023-04-22T05:20:39;97153.91;;;10.42;100.00
11448;BME280;43755;49.736;8.734;2023-04-22T05:22:40;97152.16;;;10.73;100.00
11448;BME280;43755;49.736;8.734;2023-04-22T05:24:44;97155.38;;;10.93;100.00
11448;BME280;43755;49.736;8.734;2023-04-22T05:26:46;97155.25;;;11.11;100.00
11448;BME280;43755;49.736;8.734;2023-04-22T05:28:48;97164.34;;;11.50;100.00
11448;BME280;43755;49.736;8.734;2023-04-22T05:30:49;97163.91;;;11.72;100.00
11448;BME280;43755;49.736;8.734;2023-04-22T05:32:50;97165.59;;;11.89;97.08
11448;BME280;43755;49.736;8.734;2023-04-22T05:34:52;97171.25;;;12.25;91.34
11448;BME280;43755;49.736;8.734;2023-04-22T05:36:53;97172.34;;;12.50;89.97
11448;BME280;43755;49.736;8.734;2023-04-22T05:38:55;97160.03;;;12.63;88.53
11448;BME280;43755;49.736;8.734;2023-04-22T05:40:56;97168.59;;;12.81;84.68
11448;BME280;43755;49.736;8.734;2023-04-22T05:42:59;97171.56;;;13.03;82.23
11448;BME280;43755;49.736;8.734;2023-04-22T05:45:00;97173.25;;;13.18;81.15
11448;BME280;43755;49.736;8.734;2023-04-22T05:47:02;97172.97;;;13.35;80.26
11448;BME280;43755;49.736;8.734;2023-04-22T05:49:03;97174.81;;;13.47;77.92
11448;BME280;43755;49.736;8.734;2023-04-22T05:51:04;97171.09;;;13.63;76.58
11448;BME280;43755;49.736;8.734;2023-04-22T05:53:06;97173.16;;;13.72;76.81
11448;BME280;43755;49.736;8.734;2023-04-22T05:55:07;97173.03;;;13.73;76.76
11448;BME280;43755;49.736;8.734;2023-04-22T05:57:09;97176.13;;;13.80;77.51
11448;BME280;43755;49.736;8.734;2023-04-22T05:59:12;97179.19;;;13.48;93.73
11448;BME280;43755;49.736;8.734;2023-04-22T06:01:13;97185.72;;;13.30;87.93
11448;BME280;43755;49.736;8.734;2023-04-22T06:03:15;97190.06;;;13.31;85.09
11448;BME280;43755;49.736;8.734;2023-04-22T06:05:16;97178.28;;;13.35;84.75
11448;BME280;43755;49.736;8.734;2023-04-22T06:07:17;97190.84;;;13.46;82.74
11448;BME280;43755;49.736;8.734;2023-04-22T06:09:19;97192.16;;;13.53;85.00
11448;BME280;43755;49.736;8.734;2023-04-22T06:11:20;97184.72;;;13.58;83.35
11448;BME280;43755;49.736;8.734;2023-04-22T06:13:22;97186.88;;;13.66;82.55
11448;BME280;43755;49.736;8.734;2023-04-22T06:15:25;97184.31;;;13.77;78.36
11448;BME280;43755;49.736;8.734;2023-04-22T06:17:27;97179.88;;;13.90;81.22
11448;BME280;43755;49.736;8.734;2023-04-22T06:19:28;97186.16;;;14.02;81.85
11448;BME280;43755;49.736;8.734;2023-04-22T06:21:30;97183.69;;;13.99;78.81
11448;BME280;43755;49.736;8.734;2023-04-22T06:23:32;97199.72;;;13.97;79.31
11448;BME280;43755;49.736;8.734;2023-04-22T06:25:34;97196.44;;;13.93;88.98
11448;BME280;43755;49.736;8.734;2023-04-22T06:27:35;97202.38;;;13.84;92.53
11448;BME280;43755;49.736;8.734;2023-04-22T06:29:37;97199.94;;;13.81;93.00
11448;BME280;43755;49.736;8.734;2023-04-22T06:31:40;97198.84;;;13.59;86.90
11448;BME280;43755;49.736;8.734;2023-04-22T06:33:41;97216.50;;;13.60;89.48
11448;BME280;43755;49.736;8.734;2023-04-22T06:35:43;97209.94;;;13.38;93.07
11448;BME280;43755;49.736;8.734;2023-04-22T06:37:45;97204.16;;;13.19;94.58
11448;BME280;43755;49.736;8.734;2023-04-22T06:39:46;97209.66;;;13.02;98.87
11448;BME280;43755;49.736;8.734;2023-04-22T06:41:48;97210.88;;;12.84;100.00
11448;BME280;43755;49.736;8.734;2023-04-22T06:43:49;97206.91;;;12.77;100.00
11448;BME280;43755;49.736;8.734;2023-04-22T06:45:51;97211.84;;;12.83;100.00
11448;BME280;43755;49.736;8.734;2023-04-22T06:47:53;97213.53;;;12.84;100.00
11448;BME280;43755;49.736;8.734;2023-04-22T06:49:55;97202.34;;;12.79;100.00
11448;BME280;43755;49.736;8.734;2023-04-22T06:51:56;97203.41;;;12.76;100.00
11448;BME280;43755;49.736;8.734;2023-04-22T06:53:57;97208.44;;;12.66;100.00
11448;BME280;43755;49.736;8.734;2023-04-22T06:55:59;97199.34;;;12.70;100.00
11448;BME280;43755;49.736;8.734;2023-04-22T06:58:00;97198.66;;;12.81;100.00
11448;BME280;43755;49.736;8.734;2023-04-22T07:00:02;97196.16;;;12.92;100.00
11448;BME280;43755;49.736;8.734;2023-04-22T07:02:04;97193.19;;;12.97;100.00
11448;BME280;43755;49.736;8.734;2023-04-22T07:04:07;97185.75;;;13.16;100.00
11448;BME280;43755;49.736;8.734;2023-04-22T07:06:08;97185.50;;;13.33;100.00
11448;BME280;43755;49.736;8.734;2023-04-22T07:08:10;97179.47;;;13.44;100.00
11448;BME280;43755;49.736;8.734;2023-04-22T07:10:12;97185.25;;;13.63;100.00
11448;BME280;43755;49.736;8.734;2023-04-22T07:12:14;97184.50;;;13.74;100.00
11448;BME280;43755;49.736;8.734;2023-04-22T07:14:15;97181.78;;;14.01;100.00
11448;BME280;43755;49.736;8.734;2023-04-22T07:16:16;97181.78;;;14.39;100.00
11448;BME280;43755;49.736;8.734;2023-04-22T07:18:18;97190.03;;;14.72;89.66
11448;BME280;43755;49.736;8.734;2023-04-22T07:20:21;97184.03;;;15.05;84.27
11448;BME280;43755;49.736;8.734;2023-04-22T07:22:22;97185.56;;;15.20;95.04
11448;BME280;43755;49.736;8.734;2023-04-22T07:24:24;97180.53;;;15.28;82.11
11448;BME280;43755;49.736;8.734;2023-04-22T07:26:25;97188.06;;;15.34;86.83
11448;BME280;43755;49.736;8.734;2023-04-22T07:28:27;97187.25;;;15.45;89.17
11448;BME280;43755;49.736;8.734;2023-04-22T07:30:28;97192.97;;;15.51;84.87
11448;BME280;43755;49.736;8.734;2023-04-22T07:32:29;97191.88;;;15.67;82.36
11448;BME280;43755;49.736;8.734;2023-04-22T07:34:31;97191.53;;;15.82;80.39
11448;BME280;43755;49.736;8.734;2023-04-22T07:36:34;97187.47;;;16.01;82.81
11448;BME280;43755;49.736;8.734;2023-04-22T07:38:35;97187.94;;;16.06;78.37
11448;BME280;43755;49.736;8.734;2023-04-22T07:40:36;97178.03;;;16.08;80.75
11448;BME280;43755;49.736;8.734;2023-04-22T07:42:38;97187.97;;;16.17;79.74
11448;BME280;43755;49.736;8.734;2023-04-22T07:44:40;97179.00;;;16.29;78.98
11448;BME280;43755;49.736;8.734;2023-04-22T07:46:41;97178.75;;;16.32;72.57
11448;BME280;43755;49.736;8.734;2023-04-22T07:48:43;97176.59;;;16.48;76.38
11448;BME280;43755;49.736;8.734;2023-04-22T07:50:44;97178.03;;;16.52;71.95
11448;BME280;43755;49.736;8.734;2023-04-22T07:52:47;97178.50;;;16.57;77.69
11448;BME280;43755;49.736;8.734;2023-04-22T07:54:48;97172.69;;;16.52;74.00
11448;BME280;43755;49.736;8.734;2023-04-22T07:56:50;97181.94;;;16.70;75.25
11448;BME280;43755;49.736;8.734;2023-04-22T07:58:51;97172.97;;;16.71;72.37
11448;BME280;43755;49.736;8.734;2023-04-22T08:00:53;97174.16;;;16.78;72.06
11448;BME280;43755;49.736;8.734;2023-04-22T08:02:54;97193.31;;;16.95;73.99
11448;BME280;43755;49.736;8.734;2023-04-22T08:04:56;97180.78;;;17.06;73.68
11448;BME280;43755;49.736;8.734;2023-04-22T08:06:57;97179.81;;;17.07;73.35
11448;BME280;43755;49.736;8.734;2023-04-22T08:09:00;97183.44;;;17.17;71.30
11448;BME280;43755;49.736;8.734;2023-04-22T08:11:01;97181.81;;;17.26;71.49
11448;BME280;43755;49.736;8.734;2023-04-22T08:13:03;97178.63;;;17.32;73.58
11448;BME280;43755;49.736;8.734;2023-04-22T08:15:06;97182.75;;;17.36;71.48
11448;BME280;43755;49.736;8.734;2023-04-22T08:17:07;97178.88;;;17.29;67.58
11448;BME280;43755;49.736;8.734;2023-04-22T08:19:09;97184.06;;;17.42;70.11
11448;BME280;43755;49.736;8.734;2023-04-22T08:21:10;97187.09;;;17.48;66.98
11448;BME280;43755;49.736;8.734;2023-04-22T08:23:12;97182.06;;;17.66;71.81
11448;BME280;43755;49.736;8.734;2023-04-22T08:25:15;97174.81;;;17.78;66.39
11448;BME280;43755;49.736;8.734;2023-04-22T08:27:16;97171.03;;;18.01;62.42
11448;BME280;43755;49.736;8.734;2023-04-22T08:29:18;97182.66;;;18.11;62.13
11448;BME280;43755;49.736;8.734;2023-04-22T08:31:19;97176.22;;;18.23;63.28
11448;BME280;43755;49.736;8.734;2023-04-22T08:33:21;97173.81;;;18.20;61.62
11448;BME280;43755;49.736;8.734;2023-04-22T08:35:22;97182.13;;;18.17;64.25
11448;BME280;43755;49.736;8.734;2023-04-22T08:37:24;97178.91;;;18.23;60.57
11448;BME280;43755;49.736;8.734;2023-04-22T08:39:25;97176.44;;;18.11;62.67
11448;BME280;43755;49.736;8.734;2023-04-22T08:41:29;97177.53;;;18.29;68.52
11448;BME280;43755;49.736;8.734;2023-04-22T08:43:31;97179.03;;;18.22;71.57
11448;BME280;43755;49.736;8.734;2023-04-22T08:45:32;97174.19;;;18.36;75.85
11448;BME280;43755;49.736;8.734;2023-04-22T08:47:34;97168.22;;;18.54;65.22
11448;BME280;43755;49.736;8.734;2023-04-22T08:49:37;97177.06;;;18.75;64.61
11448;BME280;43755;49.736;8.734;2023-04-22T08:51:39;97175.94;;;18.77;61.67
11448;BME280;43755;49.736;8.734;2023-04-22T08:53:42;97181.34;;;18.97;67.22
11448;BME280;43755;49.736;8.734;2023-04-22T08:55:44;97164.31;;;19.07;59.48
11448;BME280;43755;49.736;8.734;2023-04-22T08:57:48;97175.19;;;19.15;62.58
11448;BME280;43755;49.736;8.734;2023-04-22T08:59:50;97171.38;;;19.18;56.95
11448;BME280;43755;49.736;8.734;2023-04-22T09:01:54;97175.72;;;19.09;64.19
11448;BME280;43755;49.736;8.734;2023-04-22T09:03:58;97175.97;;;18.87;67.70
11448;BME280;43755;49.736;8.734;2023-04-22T09:06:02;97180.75;;;18.84;66.89
11448;BME280;43755;49.736;8.734;2023-04-22T09:08:04;97178.22;;;18.82;66.52
11448;BME280;43755;49.736;8.734;2023-04-22T09:10:07;97177.66;;;18.88;67.55
11448;BME280;43755;49.736;8.734;2023-04-22T09:12:10;97169.06;;;18.85;67.78
11448;BME280;43755;49.736;8.734;2023-04-22T09:14:15;97177.78;;;18.77;64.28
11448;BME280;43755;49.736;8.734;2023-04-22T09:16:16;97166.31;;;18.65;68.46
11448;BME280;43755;49.736;8.734;2023-04-22T09:18:18;97173.69;;;18.83;71.73
11448;BME280;43755;49.736;8.734;2023-04-22T09:20:24;97158.34;;;18.94;67.51
11448;BME280;43755;49.736;8.734;2023-04-22T09:22:27;97159.91;;;18.97;65.79
11448;BME280;43755;49.736;8.734;2023-04-22T09:24:29;97154.59;;;19.16;69.32
11448;BME280;43755;49.736;8.734;2023-04-22T09:26:31;97169.97;;;19.33;63.13
11448;BME280;43755;49.736;8.734;2023-04-22T09:28:35;97176.13;;;19.54;55.07
11448;BME280;43755;49.736;8.734;2023-04-22T09:30:38;97172.31;;;19.67;53.95
11448;BME280;43755;49.736;8.734;2023-04-22T09:32:39;97169.03;;;19.82;61.31
11448;BME280;43755;49.736;8.734;2023-04-22T09:34:47;97170.31;;;19.78;55.67
11448;BME280;43755;49.736;8.734;2023-04-22T09:36:49;97173.53;;;19.91;49.91
11448;BME280;43755;49.736;8.734;2023-04-22T09:38:52;97175.06;;;20.03;51.73
11448;BME280;43755;49.736;8.734;2023-04-22T09:40:54;97174.81;;;20.07;50.21
11448;BME280;43755;49.736;8.734;2023-04-22T09:42:56;97174.81;;;20.07;47.94
11448;BME280;43755;49.736;8.734;2023-04-22T09:44:58;97176.63;;;20.06;49.74
11448;BME280;43755;49.736;8.734;2023-04-22T09:47:01;97182.16;;;19.85;46.83
11448;BME280;43755;49.736;8.734;2023-04-22T09:49:02;97173.84;;;19.79;47.33
11448;BME280;43755;49.736;8.734;2023-04-22T09:51:13;97175.38;;;20.00;46.62
11448;BME280;43755;49.736;8.734;2023-04-22T09:53:16;97176.94;;;19.93;48.94
11448;BME280;43755;49.736;8.734;2023-04-22T09:55:18;97171.72;;;19.82;45.14
11448;BME280;43755;49.736;8.734;2023-04-22T09:57:21;97169.88;;;19.92;45.56
11448;BME280;43755;49.736;8.734;2023-04-22T09:59:25;97174.66;;;19.98;49.58
11448;BME280;43755;49.736;8.734;2023-04-22T10:01:34;97163.34;;;20.14;48.85
11448;BME280;43755;49.736;8.734;2023-04-22T10:03:37;97170.66;;;20.22;47.91
11448;BME280;43755;49.736;8.734;2023-04-22T10:05:38;97169.38;;;20.35;44.44
11448;BME280;43755;49.736;8.734;2023-04-22T10:07:41;97163.97;;;20.45;47.32
11448;BME280;43755;49.736;8.734;2023-04-22T10:09:42;97164.22;;;20.61;46.88
11448;BME280;43755;49.736;8.734;2023-04-22T10:11:45;97164.09;;;20.53;44.50
11448;BME280;43755;49.736;8.734;2023-04-22T10:13:46;97163.69;;;20.48;44.84
11448;BME280;43755;49.736;8.734;2023-04-22T10:15:50;97166.38;;;20.48;45.63
11448;BME280;43755;49.736;8.734;2023-04-22T10:17:53;97164.44;;;20.31;44.35
11448;BME280;43755;49.736;8.734;2023-04-22T10:19:58;97163.84;;;20.27;44.83
11448;BME280;43755;49.736;8.734;2023-04-22T10:22:02;97157.34;;;20.30;43.97
11448;BME280;43755;49.736;8.734;2023-04-22T10:24:05;97156.22;;;20.32;43.60
11448;BME280;43755;49.736;8.734;2023-04-22T10:26:06;97152.03;;;20.57;44.52
11448;BME280;43755;49.736;8.734;2023-04-22T10:28:09;97152.50;;;20.80;45.53
11448;BME280;43755;49.736;8.734;2023-04-22T10:30:25;97148.19;;;20.97;42.93
11448;BME280;43755;49.736;8.734;2023-04-22T10:32:27;97148.66;;;21.10;41.79
11448;BME280;43755;49.736;8.734;2023-04-22T10:34:30;97142.28;;;21.38;43.48
11448;BME280;43755;49.736;8.734;2023-04-22T10:36:33;97152.75;;;21.14;38.97
11448;BME280;43755;49.736;8.734;2023-04-22T10:38:35;97121.72;;;20.92;40.28
11448;BME280;43755;49.736;8.734;2023-04-22T10:40:59;97149.69;;;20.81;39.48
11448;BME280;43755;49.736;8.734;2023-04-22T10:43:00;97144.22;;;20.91;41.81
11448;BME280;43755;49.736;8.734;2023-04-22T10:45:03;97147.13;;;21.07;41.03